sensor_id;sensor_type;location;lat;lon;timestamp;P1;durP1;ratioP1;P2;durP2;ratioP2
14094;SDS011;18096;48.142;16.290;2022-12-29T00:02:18;14.07;;;7.87;;
14094;SDS011;18096;48.142;16.290;2022-12-29T00:04:43;13.70;;;7.10;;
14094;SDS011;18096;48.142;16.290;2022-12-29T00:07:09;12.60;;;7.37;;
14094;SDS011;18096;48.142;16.290;2022-12-29T00:09:35;17.65;;;7.70;;
14094;SDS011;18096;48.142;16.290;2022-12-29T00:12:01;14.43;;;8.77;;
14094;SDS011;18096;48.142;16.290;2022-12-29T00:14:29;15.90;;;8.57;;
14094;SDS011;18096;48.142;16.290;2022-12-29T00:17:13;14.95;;;8.70;;
14094;SDS011;18096;48.142;16.290;2022-12-29T00:19:39;18.50;;;8.70;;
14094;SDS011;18096;48.142;16.290;2022-12-29T00:22:23;15.18;;;8.73;;
14094;SDS011;18096;48.142;16.290;2022-12-29T00:25:09;12.85;;;8.77;;
14094;SDS011;18096;48.142;16.290;2022-12-29T00:27:54;20.85;;;9.02;;
14094;SDS011;18096;48.142;16.290;2022-12-29T00:30:38;13.70;;;9.10;;
14094;SDS011;18096;48.142;16.290;2022-12-29T00:33:25;13.82;;;8.80;;
14094;SDS011;18096;48.142;16.290;2022-12-29T00:36:20;17.58;;;9.32;;
14094;SDS011;18096;48.142;16.290;2022-12-29T00:39:00;12.13;;;8.68;;
14094;SDS011;18096;48.142;16.290;2022-12-29T00:41:51;14.07;;;8.20;;
14094;SDS011;18096;48.142;16.290;2022-12-29T00:44:35;12.35;;;8.23;;
14094;SDS011;18096;48.142;16.290;2022-12-29T00:47:01;15.63;;;8.93;;
14094;SDS011;18096;48.142;16.290;2022-12-29T00:49:28;13.18;;;8.38;;
14094;SDS011;18096;48.142;16.290;2022-12-29T00:52:07;17.95;;;9.68;;
14094;SDS011;18096;48.142;16.290;2022-12-29T00:54:35;16.13;;;8.93;;
14094;SDS011;18096;48.142;16.290;2022-12-29T00:57:03;12.65;;;8.65;;
14094;SDS011;18096;48.142;16.290;2022-12-29T00:59:30;18.42;;;8.70;;
14094;SDS011;18096;48.142;16.290;2022-12-29T01:01:56;14.77;;;8.48;;
14094;SDS011;18096;48.142;16.290;2022-12-29T01:04:23;9.35;;;8.15;;
14094;SDS011;18096;48.142;16.290;2022-12-29T01:06:50;11.30;;;8.00;;
14094;SDS011;18096;48.142;16.290;2022-12-29T01:09:16;13.35;;;7.93;;
14094;SDS011;18096;48.142;16.290;2022-12-29T01:12:01;18.25;;;8.65;;
14094;SDS011;18096;48.142;16.290;2022-12-29T01:14:27;12.73;;;8.32;;
14094;SDS011;18096;48.142;16.290;2022-12-29T01:16:53;12.33;;;8.43;;
14094;SDS011;18096;48.142;16.290;2022-12-29T01:19:20;13.23;;;8.02;;
14094;SDS011;18096;48.142;16.290;2022-12-29T01:21:46;13.02;;;7.40;;
14094;SDS011;18096;48.142;16.290;2022-12-29T01:24:13;11.77;;;6.40;;
14094;SDS011;18096;48.142;16.290;2022-12-29T01:26:40;10.85;;;6.97;;
14094;SDS011;18096;48.142;16.290;2022-12-29T01:29:06;9.77;;;6.72;;
14094;SDS011;18096;48.142;16.290;2022-12-29T01:31:31;10.77;;;6.85;;
14094;SDS011;18096;48.142;16.290;2022-12-29T01:33:57;10.23;;;6.97;;
14094;SDS011;18096;48.142;16.290;2022-12-29T01:36:23;13.90;;;6.90;;
14094;SDS011;18096;48.142;16.290;2022-12-29T01:38:49;15.50;;;7.65;;
14094;SDS011;18096;48.142;16.290;2022-12-29T01:41:15;11.97;;;7.53;;
14094;SDS011;18096;48.142;16.290;2022-12-29T01:43:43;9.85;;;6.85;;
14094;SDS011;18096;48.142;16.290;2022-12-29T01:46:22;9.57;;;6.85;;
14094;SDS011;18096;48.142;16.290;2022-12-29T01:48:52;14.18;;;7.53;;
14094;SDS011;18096;48.142;16.290;2022-12-29T01:51:38;10.30;;;7.20;;
14094;SDS011;18096;48.142;16.290;2022-12-29T01:54:10;14.15;;;6.40;;
14094;SDS011;18096;48.142;16.290;2022-12-29T01:56:38;13.63;;;7.47;;
14094;SDS011;18096;48.142;16.290;2022-12-29T01:59:05;10.82;;;7.45;;
14094;SDS011;18096;48.142;16.290;2022-12-29T02:01:36;12.65;;;7.90;;
14094;SDS011;18096;48.142;16.290;2022-12-29T02:04:02;12.25;;;6.97;;
14094;SDS011;18096;48.142;16.290;2022-12-29T02:06:29;11.90;;;7.28;;
14094;SDS011;18096;48.142;16.290;2022-12-29T02:09:00;13.87;;;7.30;;
14094;SDS011;18096;48.142;16.290;2022-12-29T02:11:26;11.68;;;7.63;;
14094;SDS011;18096;48.142;16.290;2022-12-29T02:13:53;10.73;;;6.60;;
14094;SDS011;18096;48.142;16.290;2022-12-29T02:19:15;8.93;;;6.30;;
14094;SDS011;18096;48.142;16.290;2022-12-29T02:21:54;10.15;;;6.88;;
14094;SDS011;18096;48.142;16.290;2022-12-29T02:27:36;9.25;;;6.82;;
14094;SDS011;18096;48.142;16.290;2022-12-29T02:30:25;8.57;;;6.60;;
14094;SDS011;18096;48.142;16.290;2022-12-29T02:51:52;8.23;;;5.70;;
14094;SDS011;18096;48.142;16.290;2022-12-29T02:54:25;9.20;;;5.57;;
14094;SDS011;18096;48.142;16.290;2022-12-29T02:57:13;7.88;;;6.53;;
14094;SDS011;18096;48.142;16.290;2022-12-29T02:59:45;7.80;;;6.93;;
14094;SDS011;18096;48.142;16.290;2022-12-29T03:05:22;6.40;;;5.70;;
14094;SDS011;18096;48.142;16.290;2022-12-29T03:07:58;8.73;;;5.30;;
14094;SDS011;18096;48.142;16.290;2022-12-29T03:10:48;5.53;;;5.03;;
14094;SDS011;18096;48.142;16.290;2022-12-29T03:13:34;6.00;;;5.50;;
14094;SDS011;18096;48.142;16.290;2022-12-29T03:19:19;7.57;;;5.90;;
14094;SDS011;18096;48.142;16.290;2022-12-29T03:22:08;5.55;;;4.95;;
14094;SDS011;18096;48.142;16.290;2022-12-29T03:24:53;7.07;;;5.30;;
14094;SDS011;18096;48.142;16.290;2022-12-29T03:27:24;8.10;;;6.07;;
14094;SDS011;18096;48.142;16.290;2022-12-29T03:29:54;11.73;;;5.55;;
14094;SDS011;18096;48.142;16.290;2022-12-29T03:32:29;9.60;;;5.60;;
14094;SDS011;18096;48.142;16.290;2022-12-29T03:34:58;6.70;;;5.55;;
14094;SDS011;18096;48.142;16.290;2022-12-29T03:37:26;12.48;;;6.40;;
14094;SDS011;18096;48.142;16.290;2022-12-29T03:39:55;9.63;;;5.80;;
14094;SDS011;18096;48.142;16.290;2022-12-29T03:42:23;7.53;;;6.05;;
14094;SDS011;18096;48.142;16.290;2022-12-29T03:44:53;7.75;;;5.85;;
14094;SDS011;18096;48.142;16.290;2022-12-29T03:47:24;9.40;;;6.10;;
14094;SDS011;18096;48.142;16.290;2022-12-29T03:49:50;8.98;;;5.82;;
14094;SDS011;18096;48.142;16.290;2022-12-29T03:52:16;9.82;;;6.03;;
14094;SDS011;18096;48.142;16.290;2022-12-29T03:54:42;12.07;;;6.10;;
14094;SDS011;18096;48.142;16.290;2022-12-29T03:57:09;9.73;;;5.77;;
14094;SDS011;18096;48.142;16.290;2022-12-29T03:59:35;7.27;;;5.90;;
14094;SDS011;18096;48.142;16.290;2022-12-29T04:02:01;5.50;;;5.00;;
14094;SDS011;18096;48.142;16.290;2022-12-29T04:04:26;7.83;;;5.70;;
14094;SDS011;18096;48.142;16.290;2022-12-29T04:06:52;8.77;;;6.20;;
14094;SDS011;18096;48.142;16.290;2022-12-29T04:09:18;7.93;;;5.97;;
14094;SDS011;18096;48.142;16.290;2022-12-29T04:11:44;5.73;;;5.20;;
14094;SDS011;18096;48.142;16.290;2022-12-29T04:14:09;10.63;;;5.90;;
14094;SDS011;18096;48.142;16.290;2022-12-29T04:16:35;10.18;;;5.80;;
14094;SDS011;18096;48.142;16.290;2022-12-29T04:19:03;10.25;;;5.88;;
14094;SDS011;18096;48.142;16.290;2022-12-29T04:21:30;9.85;;;6.35;;
14094;SDS011;18096;48.142;16.290;2022-12-29T04:23:56;8.45;;;5.97;;
14094;SDS011;18096;48.142;16.290;2022-12-29T04:26:21;7.70;;;5.22;;
14094;SDS011;18096;48.142;16.290;2022-12-29T04:28:47;10.40;;;6.40;;
14094;SDS011;18096;48.142;16.290;2022-12-29T04:31:13;6.15;;;5.15;;
14094;SDS011;18096;48.142;16.290;2022-12-29T04:33:39;11.15;;;6.18;;
14094;SDS011;18096;48.142;16.290;2022-12-29T04:36:05;6.90;;;5.70;;
14094;SDS011;18096;48.142;16.290;2022-12-29T04:38:30;6.88;;;6.20;;
14094;SDS011;18096;48.142;16.290;2022-12-29T04:40:58;5.45;;;5.05;;
14094;SDS011;18096;48.142;16.290;2022-12-29T04:43:25;6.57;;;5.55;;
14094;SDS011;18096;48.142;16.290;2022-12-29T04:45:51;7.73;;;5.20;;
14094;SDS011;18096;48.142;16.290;2022-12-29T04:48:17;6.80;;;5.10;;
14094;SDS011;18096;48.142;16.290;2022-12-29T04:50:43;9.77;;;5.07;;
14094;SDS011;18096;48.142;16.290;2022-12-29T04:53:09;8.20;;;6.00;;
14094;SDS011;18096;48.142;16.290;2022-12-29T04:55:35;9.75;;;5.90;;
14094;SDS011;18096;48.142;16.290;2022-12-29T04:58:01;8.93;;;6.47;;
14094;SDS011;18096;48.142;16.290;2022-12-29T05:00:27;7.75;;;6.15;;
14094;SDS011;18096;48.142;16.290;2022-12-29T05:02:52;9.05;;;5.45;;
14094;SDS011;18096;48.142;16.290;2022-12-29T05:05:18;6.70;;;5.80;;
14094;SDS011;18096;48.142;16.290;2022-12-29T05:07:43;9.00;;;6.10;;
14094;SDS011;18096;48.142;16.290;2022-12-29T05:10:10;7.13;;;5.93;;
14094;SDS011;18096;48.142;16.290;2022-12-29T05:12:36;10.55;;;6.32;;
14094;SDS011;18096;48.142;16.290;2022-12-29T05:15:03;10.40;;;6.43;;
14094;SDS011;18096;48.142;16.290;2022-12-29T05:17:30;11.45;;;6.25;;
14094;SDS011;18096;48.142;16.290;2022-12-29T05:19:56;7.30;;;6.00;;
14094;SDS011;18096;48.142;16.290;2022-12-29T05:22:21;9.70;;;6.10;;
14094;SDS011;18096;48.142;16.290;2022-12-29T05:24:47;11.07;;;5.70;;
14094;SDS011;18096;48.142;16.290;2022-12-29T05:27:13;9.87;;;5.23;;
14094;SDS011;18096;48.142;16.290;2022-12-29T05:29:39;9.80;;;5.25;;
14094;SDS011;18096;48.142;16.290;2022-12-29T05:32:05;9.50;;;5.50;;
14094;SDS011;18096;48.142;16.290;2022-12-29T05:34:31;13.30;;;6.23;;
14094;SDS011;18096;48.142;16.290;2022-12-29T05:36:56;8.90;;;6.43;;
14094;SDS011;18096;48.142;16.290;2022-12-29T05:39:22;8.17;;;6.43;;
14094;SDS011;18096;48.142;16.290;2022-12-29T05:41:48;10.20;;;6.53;;
14094;SDS011;18096;48.142;16.290;2022-12-29T05:44:13;9.18;;;6.13;;
14094;SDS011;18096;48.142;16.290;2022-12-29T05:46:39;9.05;;;5.90;;
14094;SDS011;18096;48.142;16.290;2022-12-29T05:49:05;11.88;;;6.88;;
14094;SDS011;18096;48.142;16.290;2022-12-29T05:51:31;7.10;;;5.72;;
14094;SDS011;18096;48.142;16.290;2022-12-29T05:53:56;7.75;;;6.38;;
14094;SDS011;18096;48.142;16.290;2022-12-29T05:56:22;9.43;;;5.57;;
14094;SDS011;18096;48.142;16.290;2022-12-29T05:58:48;10.82;;;6.10;;
14094;SDS011;18096;48.142;16.290;2022-12-29T06:01:14;11.40;;;6.32;;
14094;SDS011;18096;48.142;16.290;2022-12-29T06:03:40;11.48;;;7.15;;
14094;SDS011;18096;48.142;16.290;2022-12-29T06:06:05;8.43;;;5.95;;
14094;SDS011;18096;48.142;16.290;2022-12-29T06:08:32;8.13;;;5.50;;
14094;SDS011;18096;48.142;16.290;2022-12-29T06:10:57;10.95;;;6.50;;
14094;SDS011;18096;48.142;16.290;2022-12-29T06:13:23;11.48;;;5.85;;
14094;SDS011;18096;48.142;16.290;2022-12-29T06:15:49;7.15;;;5.90;;
14094;SDS011;18096;48.142;16.290;2022-12-29T06:18:15;9.13;;;6.20;;
14094;SDS011;18096;48.142;16.290;2022-12-29T06:20:41;12.30;;;6.40;;
14094;SDS011;18096;48.142;16.290;2022-12-29T06:23:07;12.63;;;6.40;;
14094;SDS011;18096;48.142;16.290;2022-12-29T06:25:33;11.30;;;6.85;;
14094;SDS011;18096;48.142;16.290;2022-12-29T06:28:01;10.33;;;6.27;;
14094;SDS011;18096;48.142;16.290;2022-12-29T06:30:27;11.85;;;7.35;;
14094;SDS011;18096;48.142;16.290;2022-12-29T06:32:53;10.20;;;7.10;;
14094;SDS011;18096;48.142;16.290;2022-12-29T06:35:19;14.73;;;5.88;;
14094;SDS011;18096;48.142;16.290;2022-12-29T06:37:47;8.60;;;6.00;;
14094;SDS011;18096;48.142;16.290;2022-12-29T06:40:13;9.50;;;6.63;;
14094;SDS011;18096;48.142;16.290;2022-12-29T06:42:39;11.07;;;5.87;;
14094;SDS011;18096;48.142;16.290;2022-12-29T06:45:05;9.07;;;6.00;;
14094;SDS011;18096;48.142;16.290;2022-12-29T06:47:32;8.88;;;6.38;;
14094;SDS011;18096;48.142;16.290;2022-12-29T06:49:59;11.53;;;6.43;;
14094;SDS011;18096;48.142;16.290;2022-12-29T06:52:24;9.15;;;6.45;;
14094;SDS011;18096;48.142;16.290;2022-12-29T06:54:50;9.35;;;7.10;;
14094;SDS011;18096;48.142;16.290;2022-12-29T06:57:16;15.55;;;8.25;;
14094;SDS011;18096;48.142;16.290;2022-12-29T06:59:42;21.58;;;8.77;;
14094;SDS011;18096;48.142;16.290;2022-12-29T07:02:11;14.13;;;8.40;;
14094;SDS011;18096;48.142;16.290;2022-12-29T07:04:38;15.93;;;7.72;;
14094;SDS011;18096;48.142;16.290;2022-12-29T07:07:03;12.50;;;7.30;;
14094;SDS011;18096;48.142;16.290;2022-12-29T07:09:29;8.75;;;7.18;;
14094;SDS011;18096;48.142;16.290;2022-12-29T07:11:55;16.60;;;7.37;;
14094;SDS011;18096;48.142;16.290;2022-12-29T07:14:20;13.33;;;7.50;;
14094;SDS011;18096;48.142;16.290;2022-12-29T07:16:46;10.53;;;6.73;;
14094;SDS011;18096;48.142;16.290;2022-12-29T07:19:12;15.20;;;7.10;;
14094;SDS011;18096;48.142;16.290;2022-12-29T07:21:37;11.27;;;7.07;;
14094;SDS011;18096;48.142;16.290;2022-12-29T07:24:05;12.60;;;7.07;;
14094;SDS011;18096;48.142;16.290;2022-12-29T07:26:31;14.68;;;7.28;;
14094;SDS011;18096;48.142;16.290;2022-12-29T07:28:56;19.67;;;8.30;;
14094;SDS011;18096;48.142;16.290;2022-12-29T07:31:22;13.63;;;8.65;;
14094;SDS011;18096;48.142;16.290;2022-12-29T07:33:48;10.83;;;7.90;;
14094;SDS011;18096;48.142;16.290;2022-12-29T07:36:14;16.15;;;8.65;;
14094;SDS011;18096;48.142;16.290;2022-12-29T07:38:41;14.73;;;9.80;;
14094;SDS011;18096;48.142;16.290;2022-12-29T07:41:07;20.10;;;10.67;;
14094;SDS011;18096;48.142;16.290;2022-12-29T07:43:33;17.10;;;9.52;;
14094;SDS011;18096;48.142;16.290;2022-12-29T07:45:59;18.15;;;10.25;;
14094;SDS011;18096;48.142;16.290;2022-12-29T07:48:25;17.35;;;10.73;;
14094;SDS011;18096;48.142;16.290;2022-12-29T07:50:52;25.58;;;12.35;;
14094;SDS011;18096;48.142;16.290;2022-12-29T07:53:18;20.02;;;12.02;;
14094;SDS011;18096;48.142;16.290;2022-12-29T07:55:44;27.45;;;12.73;;
14094;SDS011;18096;48.142;16.290;2022-12-29T07:58:09;23.43;;;13.90;;
14094;SDS011;18096;48.142;16.290;2022-12-29T08:00:35;24.27;;;13.05;;
14094;SDS011;18096;48.142;16.290;2022-12-29T08:03:02;27.80;;;13.97;;
14094;SDS011;18096;48.142;16.290;2022-12-29T08:05:29;28.53;;;14.73;;
14094;SDS011;18096;48.142;16.290;2022-12-29T08:07:56;29.25;;;14.65;;
14094;SDS011;18096;48.142;16.290;2022-12-29T08:10:22;27.80;;;15.17;;
14094;SDS011;18096;48.142;16.290;2022-12-29T08:12:47;35.15;;;16.85;;
14094;SDS011;18096;48.142;16.290;2022-12-29T08:15:13;33.30;;;15.02;;
14094;SDS011;18096;48.142;16.290;2022-12-29T08:17:39;29.30;;;14.65;;
14094;SDS011;18096;48.142;16.290;2022-12-29T08:20:05;29.00;;;14.73;;
14094;SDS011;18096;48.142;16.290;2022-12-29T08:22:32;20.75;;;13.15;;
14094;SDS011;18096;48.142;16.290;2022-12-29T08:24:57;26.20;;;14.63;;
14094;SDS011;18096;48.142;16.290;2022-12-29T08:27:23;22.45;;;14.20;;
14094;SDS011;18096;48.142;16.290;2022-12-29T08:29:49;26.90;;;14.52;;
14094;SDS011;18096;48.142;16.290;2022-12-29T08:32:15;22.83;;;13.98;;
14094;SDS011;18096;48.142;16.290;2022-12-29T08:34:41;23.17;;;14.63;;
14094;SDS011;18096;48.142;16.290;2022-12-29T08:37:06;22.60;;;14.02;;
14094;SDS011;18096;48.142;16.290;2022-12-29T08:39:32;31.13;;;13.95;;
14094;SDS011;18096;48.142;16.290;2022-12-29T08:41:58;20.35;;;13.02;;
14094;SDS011;18096;48.142;16.290;2022-12-29T08:44:23;25.00;;;13.07;;
14094;SDS011;18096;48.142;16.290;2022-12-29T08:46:49;25.57;;;13.30;;
14094;SDS011;18096;48.142;16.290;2022-12-29T08:49:14;28.35;;;12.90;;
14094;SDS011;18096;48.142;16.290;2022-12-29T08:51:40;26.10;;;14.40;;
14094;SDS011;18096;48.142;16.290;2022-12-29T08:54:06;26.75;;;13.13;;
14094;SDS011;18096;48.142;16.290;2022-12-29T08:56:31;24.50;;;13.90;;
14094;SDS011;18096;48.142;16.290;2022-12-29T08:58:57;19.50;;;12.63;;
14094;SDS011;18096;48.142;16.290;2022-12-29T09:01:23;21.40;;;13.53;;
14094;SDS011;18096;48.142;16.290;2022-12-29T09:03:48;20.40;;;12.23;;
14094;SDS011;18096;48.142;16.290;2022-12-29T09:06:14;23.73;;;14.18;;
14094;SDS011;18096;48.142;16.290;2022-12-29T09:08:41;22.95;;;12.90;;
14094;SDS011;18096;48.142;16.290;2022-12-29T09:11:15;20.83;;;13.13;;
14094;SDS011;18096;48.142;16.290;2022-12-29T09:13:43;21.70;;;13.43;;
14094;SDS011;18096;48.142;16.290;2022-12-29T09:16:09;20.23;;;13.20;;
14094;SDS011;18096;48.142;16.290;2022-12-29T09:18:35;20.23;;;11.97;;
14094;SDS011;18096;48.142;16.290;2022-12-29T09:21:01;20.50;;;12.80;;
14094;SDS011;18096;48.142;16.290;2022-12-29T09:23:29;20.80;;;12.50;;
14094;SDS011;18096;48.142;16.290;2022-12-29T09:25:55;23.45;;;12.15;;
14094;SDS011;18096;48.142;16.290;2022-12-29T09:28:21;18.58;;;10.90;;
14094;SDS011;18096;48.142;16.290;2022-12-29T09:30:48;17.70;;;10.40;;
14094;SDS011;18096;48.142;16.290;2022-12-29T09:33:14;18.13;;;10.17;;
14094;SDS011;18096;48.142;16.290;2022-12-29T09:35:43;19.83;;;11.48;;
14094;SDS011;18096;48.142;16.290;2022-12-29T09:38:10;20.05;;;10.60;;
14094;SDS011;18096;48.142;16.290;2022-12-29T09:40:36;19.73;;;11.38;;
14094;SDS011;18096;48.142;16.290;2022-12-29T09:48:21;17.65;;;12.10;;
14094;SDS011;18096;48.142;16.290;2022-12-29T09:50:52;17.88;;;11.70;;
14094;SDS011;18096;48.142;16.290;2022-12-29T09:53:31;22.67;;;13.45;;
14094;SDS011;18096;48.142;16.290;2022-12-29T09:56:01;26.40;;;13.60;;
14094;SDS011;18096;48.142;16.290;2022-12-29T09:58:30;24.05;;;14.65;;
14094;SDS011;18096;48.142;16.290;2022-12-29T10:01:21;23.27;;;13.80;;
14094;SDS011;18096;48.142;16.290;2022-12-29T10:04:09;22.83;;;13.27;;
14094;SDS011;18096;48.142;16.290;2022-12-29T10:12:38;25.98;;;13.60;;
14094;SDS011;18096;48.142;16.290;2022-12-29T10:25:44;28.52;;;14.00;;
14094;SDS011;18096;48.142;16.290;2022-12-29T10:31:13;25.00;;;14.25;;
14094;SDS011;18096;48.142;16.290;2022-12-29T10:33:46;21.55;;;12.70;;
14094;SDS011;18096;48.142;16.290;2022-12-29T10:36:40;30.20;;;15.70;;
14094;SDS011;18096;48.142;16.290;2022-12-29T10:45:06;28.27;;;15.45;;
14094;SDS011;18096;48.142;16.290;2022-12-29T10:47:39;23.53;;;14.90;;
14094;SDS011;18096;48.142;16.290;2022-12-29T10:50:13;33.15;;;16.30;;
14094;SDS011;18096;48.142;16.290;2022-12-29T10:52:39;26.25;;;15.95;;
14094;SDS011;18096;48.142;16.290;2022-12-29T10:55:08;25.65;;;15.35;;
14094;SDS011;18096;48.142;16.290;2022-12-29T10:57:44;24.37;;;14.77;;
14094;SDS011;18096;48.142;16.290;2022-12-29T11:00:15;23.85;;;14.75;;
14094;SDS011;18096;48.142;16.290;2022-12-29T11:03:08;25.70;;;14.10;;
14094;SDS011;18096;48.142;16.290;2022-12-29T11:05:56;23.45;;;14.93;;
14094;SDS011;18096;48.142;16.290;2022-12-29T11:08:26;23.35;;;14.52;;
14094;SDS011;18096;48.142;16.290;2022-12-29T11:10:59;24.20;;;14.40;;
14094;SDS011;18096;48.142;16.290;2022-12-29T11:13:28;25.65;;;14.57;;
14094;SDS011;18096;48.142;16.290;2022-12-29T11:15:56;32.20;;;15.05;;
14094;SDS011;18096;48.142;16.290;2022-12-29T11:18:25;26.92;;;15.98;;
14094;SDS011;18096;48.142;16.290;2022-12-29T11:21:00;28.77;;;14.98;;
14094;SDS011;18096;48.142;16.290;2022-12-29T11:23:29;26.10;;;15.43;;
14094;SDS011;18096;48.142;16.290;2022-12-29T11:28:46;35.10;;;15.15;;
14094;SDS011;18096;48.142;16.290;2022-12-29T11:31:31;29.03;;;15.63;;
14094;SDS011;18096;48.142;16.290;2022-12-29T11:34:06;31.42;;;17.33;;
14094;SDS011;18096;48.142;16.290;2022-12-29T11:36:33;26.50;;;14.82;;
14094;SDS011;18096;48.142;16.290;2022-12-29T11:39:00;24.27;;;14.32;;
14094;SDS011;18096;48.142;16.290;2022-12-29T11:41:27;22.20;;;15.48;;
14094;SDS011;18096;48.142;16.290;2022-12-29T11:43:55;27.42;;;15.55;;
14094;SDS011;18096;48.142;16.290;2022-12-29T11:46:24;32.37;;;16.17;;
14094;SDS011;18096;48.142;16.290;2022-12-29T11:48:54;32.13;;;15.68;;
14094;SDS011;18096;48.142;16.290;2022-12-29T11:51:24;32.70;;;16.47;;
14094;SDS011;18096;48.142;16.290;2022-12-29T11:53:59;34.67;;;17.05;;
14094;SDS011;18096;48.142;16.290;2022-12-29T11:56:37;29.52;;;17.90;;
14094;SDS011;18096;48.142;16.290;2022-12-29T12:01:57;34.92;;;17.98;;
14094;SDS011;18096;48.142;16.290;2022-12-29T12:04:25;34.28;;;17.17;;
14094;SDS011;18096;48.142;16.290;2022-12-29T12:07:33;27.80;;;17.40;;
14094;SDS011;18096;48.142;16.290;2022-12-29T12:09:58;30.50;;;18.67;;
14094;SDS011;18096;48.142;16.290;2022-12-29T12:15:17;29.83;;;17.85;;
14094;SDS011;18096;48.142;16.290;2022-12-29T12:20:38;29.58;;;16.35;;
14094;SDS011;18096;48.142;16.290;2022-12-29T12:26:12;29.08;;;15.85;;
14094;SDS011;18096;48.142;16.290;2022-12-29T12:28:57;35.93;;;19.00;;
14094;SDS011;18096;48.142;16.290;2022-12-29T12:31:49;28.20;;;17.38;;
14094;SDS011;18096;48.142;16.290;2022-12-29T12:36:59;37.05;;;20.35;;
14094;SDS011;18096;48.142;16.290;2022-12-29T12:45:09;29.80;;;16.60;;
14094;SDS011;18096;48.142;16.290;2022-12-29T12:53:18;32.55;;;18.02;;
14094;SDS011;18096;48.142;16.290;2022-12-29T13:11:41;28.00;;;16.20;;
14094;SDS011;18096;48.142;16.290;2022-12-29T13:19:34;25.00;;;15.20;;
14094;SDS011;18096;48.142;16.290;2022-12-29T13:22:34;26.85;;;16.30;;
14094;SDS011;18096;48.142;16.290;2022-12-29T13:25:23;35.47;;;17.50;;
14094;SDS011;18096;48.142;16.290;2022-12-29T13:33:21;26.38;;;15.60;;
14094;SDS011;18096;48.142;16.290;2022-12-29T13:41:57;28.07;;;15.80;;
14094;SDS011;18096;48.142;16.290;2022-12-29T13:44:25;35.33;;;17.67;;
14094;SDS011;18096;48.142;16.290;2022-12-29T13:46:55;26.20;;;16.50;;
14094;SDS011;18096;48.142;16.290;2022-12-29T13:49:23;24.50;;;14.95;;
14094;SDS011;18096;48.142;16.290;2022-12-29T13:51:50;31.65;;;17.20;;
14094;SDS011;18096;48.142;16.290;2022-12-29T13:54:55;28.70;;;16.60;;
14094;SDS011;18096;48.142;16.290;2022-12-29T14:00:22;25.05;;;14.95;;
14094;SDS011;18096;48.142;16.290;2022-12-29T14:06:11;28.80;;;16.45;;
14094;SDS011;18096;48.142;16.290;2022-12-29T14:08:57;27.45;;;15.55;;
14094;SDS011;18096;48.142;16.290;2022-12-29T14:11:25;32.10;;;15.63;;
14094;SDS011;18096;48.142;16.290;2022-12-29T14:13:59;25.48;;;15.80;;
14094;SDS011;18096;48.142;16.290;2022-12-29T14:16:44;24.42;;;15.65;;
14094;SDS011;18096;48.142;16.290;2022-12-29T14:22:06;27.90;;;16.53;;
14094;SDS011;18096;48.142;16.290;2022-12-29T14:37:28;26.83;;;16.38;;
14094;SDS011;18096;48.142;16.290;2022-12-29T14:40:03;28.27;;;16.73;;
14094;SDS011;18096;48.142;16.290;2022-12-29T14:42:35;27.58;;;17.02;;
14094;SDS011;18096;48.142;16.290;2022-12-29T14:45:06;32.97;;;16.83;;
14094;SDS011;18096;48.142;16.290;2022-12-29T14:47:52;24.60;;;15.40;;
14094;SDS011;18096;48.142;16.290;2022-12-29T14:53:00;27.10;;;17.70;;
14094;SDS011;18096;48.142;16.290;2022-12-29T14:58:01;32.33;;;18.30;;
14094;SDS011;18096;48.142;16.290;2022-12-29T15:00:30;32.92;;;18.15;;
14094;SDS011;18096;48.142;16.290;2022-12-29T15:03:12;33.75;;;18.23;;
14094;SDS011;18096;48.142;16.290;2022-12-29T15:05:43;33.55;;;16.70;;
14094;SDS011;18096;48.142;16.290;2022-12-29T15:08:30;30.33;;;17.30;;
14094;SDS011;18096;48.142;16.290;2022-12-29T15:11:00;27.27;;;15.85;;
14094;SDS011;18096;48.142;16.290;2022-12-29T15:13:42;32.40;;;18.17;;
14094;SDS011;18096;48.142;16.290;2022-12-29T15:16:25;42.22;;;16.63;;
14094;SDS011;18096;48.142;16.290;2022-12-29T15:18:56;25.98;;;15.50;;
14094;SDS011;18096;48.142;16.290;2022-12-29T15:21:24;30.67;;;17.50;;
14094;SDS011;18096;48.142;16.290;2022-12-29T15:23:51;35.28;;;16.60;;
14094;SDS011;18096;48.142;16.290;2022-12-29T15:26:18;32.47;;;18.35;;
14094;SDS011;18096;48.142;16.290;2022-12-29T15:28:48;27.38;;;16.67;;
14094;SDS011;18096;48.142;16.290;2022-12-29T15:33:46;28.88;;;15.70;;
14094;SDS011;18096;48.142;16.290;2022-12-29T15:36:18;23.30;;;15.50;;
14094;SDS011;18096;48.142;16.290;2022-12-29T15:38:46;30.40;;;17.48;;
14094;SDS011;18096;48.142;16.290;2022-12-29T15:44:28;33.60;;;18.23;;
14094;SDS011;18096;48.142;16.290;2022-12-29T15:47:04;28.02;;;17.23;;
14094;SDS011;18096;48.142;16.290;2022-12-29T15:49:31;24.25;;;16.90;;
14094;SDS011;18096;48.142;16.290;2022-12-29T15:51:58;27.17;;;17.35;;
14094;SDS011;18096;48.142;16.290;2022-12-29T15:54:24;28.50;;;17.00;;
14094;SDS011;18096;48.142;16.290;2022-12-29T15:56:51;28.63;;;15.30;;
14094;SDS011;18096;48.142;16.290;2022-12-29T15:59:24;31.13;;;17.63;;
14094;SDS011;18096;48.142;16.290;2022-12-29T16:01:55;27.40;;;15.70;;
14094;SDS011;18096;48.142;16.290;2022-12-29T16:04:21;28.00;;;16.00;;
14094;SDS011;18096;48.142;16.290;2022-12-29T16:07:05;29.27;;;16.40;;
14094;SDS011;18096;48.142;16.290;2022-12-29T16:09:47;33.42;;;18.02;;
14094;SDS011;18096;48.142;16.290;2022-12-29T16:12:19;27.77;;;17.15;;
14094;SDS011;18096;48.142;16.290;2022-12-29T16:14:54;25.65;;;15.48;;
14094;SDS011;18096;48.142;16.290;2022-12-29T16:17:27;27.75;;;16.90;;
14094;SDS011;18096;48.142;16.290;2022-12-29T16:19:56;30.67;;;16.95;;
14094;SDS011;18096;48.142;16.290;2022-12-29T16:24:55;27.05;;;16.33;;
14094;SDS011;18096;48.142;16.290;2022-12-29T16:27:31;31.27;;;17.97;;
14094;SDS011;18096;48.142;16.290;2022-12-29T16:30:03;28.02;;;17.58;;
14094;SDS011;18096;48.142;16.290;2022-12-29T16:32:31;29.15;;;16.42;;
14094;SDS011;18096;48.142;16.290;2022-12-29T16:37:38;32.25;;;17.58;;
14094;SDS011;18096;48.142;16.290;2022-12-29T16:42:53;32.60;;;17.27;;
14094;SDS011;18096;48.142;16.290;2022-12-29T16:45:51;29.60;;;17.90;;
14094;SDS011;18096;48.142;16.290;2022-12-29T16:48:19;27.73;;;17.93;;
14094;SDS011;18096;48.142;16.290;2022-12-29T16:50:50;26.00;;;16.60;;
14094;SDS011;18096;48.142;16.290;2022-12-29T16:53:26;27.08;;;16.50;;
14094;SDS011;18096;48.142;16.290;2022-12-29T16:55:57;32.83;;;17.90;;
14094;SDS011;18096;48.142;16.290;2022-12-29T16:58:26;30.92;;;17.50;;
14094;SDS011;18096;48.142;16.290;2022-12-29T17:00:55;27.50;;;16.67;;
14094;SDS011;18096;48.142;16.290;2022-12-29T17:03:23;26.33;;;16.08;;
14094;SDS011;18096;48.142;16.290;2022-12-29T17:05:56;33.22;;;18.08;;
14094;SDS011;18096;48.142;16.290;2022-12-29T17:08:21;37.80;;;19.63;;
14094;SDS011;18096;48.142;16.290;2022-12-29T17:10:50;33.17;;;18.85;;
14094;SDS011;18096;48.142;16.290;2022-12-29T17:13:39;29.20;;;18.70;;
14094;SDS011;18096;48.142;16.290;2022-12-29T17:16:05;30.70;;;19.00;;
14094;SDS011;18096;48.142;16.290;2022-12-29T17:18:33;32.25;;;18.00;;
14094;SDS011;18096;48.142;16.290;2022-12-29T17:20:59;34.40;;;18.65;;